• Join FlightAware (Why Join?)
  • Login
  • US Flag 
06:02PM EST


 

Airport Tracker/Info


-or-


 

Live Flight TrackerFlight Track Log ✈ THY2481 ✈ 21-Apr-2013 ✈ LTAF / ADA - LTBA / IST

Flight Track Log - Related Links

Times and Time Zones

All times are in EDT time to prevent confusion due to time zone crossing. See the THY2481 flight status page for this flight to view local times or setup timezone preferences in your user account.

Time Position Orientation Groundspeed Altitude Reporting Facility
EDT Latitude Longitude Course Direction KTS MPH feet Rate Location/Type
06:23AM 40.3676 29.8954 311° West  Level Estimated
06:24AM 40.4238 29.7980 307° West  Level Estimated
06:25AM 40.4798 29.7004 307° West  Level Estimated
06:26AM 40.5358 29.6027 307° West  Level Estimated
06:27AM 40.5916 29.5048 307° West  Level Estimated
06:28AM 40.6474 29.4067 307° West  Level Estimated
06:29AM 40.7031 29.3085 307° West  Level Estimated
06:30AM 40.7588 29.2100 307° West  Level Estimated
06:31AM 40.8143 29.1115 307° West  Level Estimated
06:32AM 40.8698 29.0127 307° West  Level Estimated
06:33AM 40.9251 28.9138 307° West  Level Estimated
06:34AM 40.9769 28.8211 306° West  Level Estimated
06:35AM 40.9769 28.8211 21° North  Level Estimated
06:36AM 40.9769 28.8211 21° North  Level Estimated
06:37AM 40.9769 28.8211 21° North  Level Estimated
06:38AM 40.9769 28.8211 21° North  Level Estimated
06:39AM 40.9769 28.8211 21° North  Level Estimated
06:40AM 40.9769 28.8211 21° North  Level Estimated
06:41AM 40.9769 28.8211 21° North  Level Estimated
06:42AM 40.9769 28.8211 21° North  Level Estimated
06:43AM 40.9769 28.8211 21° North  Level Estimated
06:44AM 40.9769 28.8211 21° North  Level Estimated
06:45AM 40.9769 28.8211 21° North  Level Estimated
06:46AM 40.9769 28.8211 21° North  Level Estimated
06:47AM 40.9769 28.8211 21° North  Level Estimated
06:48AM 40.9769 28.8211 21° North  Level Estimated
06:49AM 40.9769 28.8211 21° North  Level Estimated
06:50AM 40.9769 28.8211 21° North  Level Estimated